createdAt,value
2018-11-05T00:00:19.717Z,10.70
2018-11-05T00:02:49.946Z,10.70
2018-11-05T00:05:18.342Z,10.60
2018-11-05T00:07:46.689Z,10.60
2018-11-05T00:10:15.047Z,10.60
2018-11-05T00:12:43.346Z,10.60
2018-11-05T00:15:11.686Z,10.60
2018-11-05T00:17:40.019Z,10.70
2018-11-05T00:20:09.599Z,10.60
2018-11-05T00:22:38.010Z,10.60
2018-11-05T00:25:07.557Z,10.60
2018-11-05T00:27:35.939Z,10.60
2018-11-05T00:30:04.389Z,10.60
2018-11-05T00:32:32.745Z,10.60
2018-11-05T00:35:01.123Z,10.60
2018-11-05T00:37:29.465Z,10.60
2018-11-05T00:39:57.815Z,10.60
2018-11-05T00:42:26.133Z,10.70
2018-11-05T00:44:54.475Z,10.60
2018-11-05T00:47:22.852Z,10.70
2018-11-05T00:49:51.171Z,10.70
2018-11-05T00:52:20.252Z,10.60
2018-11-05T00:54:48.582Z,10.60
2018-11-05T00:57:16.941Z,10.60
2018-11-05T00:59:45.280Z,10.60
2018-11-05T01:02:15.577Z,10.70
2018-11-05T01:04:43.908Z,10.70
2018-11-05T01:07:12.230Z,10.70
2018-11-05T01:09:40.567Z,10.60
2018-11-05T01:12:08.943Z,10.60
2018-11-05T01:14:37.274Z,10.70
2018-11-05T01:17:05.958Z,10.70
2018-11-05T01:19:34.329Z,10.60
2018-11-05T01:22:02.683Z,10.60
2018-11-05T01:24:31.035Z,10.60
2018-11-05T01:26:59.347Z,10.60
2018-11-05T01:29:27.688Z,10.60
2018-11-05T01:31:56.051Z,10.60
2018-11-05T01:34:24.406Z,10.60
2018-11-05T01:36:52.704Z,10.70
2018-11-05T01:39:21.044Z,10.60
2018-11-05T01:41:49.413Z,10.60
2018-11-05T01:44:17.764Z,10.60
2018-11-05T01:46:46.098Z,10.60
2018-11-05T01:49:14.925Z,10.60
2018-11-05T01:51:43.271Z,10.60
2018-11-05T01:54:11.673Z,10.60
2018-11-05T01:56:39.992Z,10.60
2018-11-05T01:59:08.316Z,10.60
2018-11-05T02:01:36.808Z,10.60
2018-11-05T02:04:05.460Z,10.60
2018-11-05T02:06:33.784Z,10.60
2018-11-05T02:09:02.130Z,10.60
2018-11-05T02:11:30.474Z,10.60
2018-11-05T02:13:58.801Z,10.60
2018-11-05T02:16:27.155Z,10.60
2018-11-05T02:18:55.471Z,10.60
2018-11-05T02:21:23.803Z,10.60
2018-11-05T02:23:52.122Z,10.60
2018-11-05T02:26:20.454Z,10.60
2018-11-05T02:28:48.875Z,10.50
2018-11-05T02:31:17.197Z,10.60
2018-11-05T02:33:45.915Z,10.60
2018-11-05T02:36:14.255Z,10.60
2018-11-05T02:38:42.570Z,10.50
2018-11-05T02:41:10.878Z,10.50
2018-11-05T02:43:39.241Z,10.50
2018-11-05T02:46:07.582Z,10.50
2018-11-05T02:48:35.930Z,10.50
2018-11-05T02:51:04.308Z,10.50
2018-11-05T02:53:32.687Z,10.50
2018-11-05T02:56:01.042Z,10.50
2018-11-05T02:58:29.388Z,10.50
2018-11-05T03:00:58.076Z,10.50
2018-11-05T03:03:26.698Z,10.50
2018-11-05T03:05:54.817Z,10.50
2018-11-05T03:08:24.172Z,10.50
2018-11-05T03:10:52.552Z,10.50
2018-11-05T03:13:20.900Z,10.50
2018-11-05T03:15:49.273Z,10.50
2018-11-05T03:18:17.604Z,10.50
2018-11-05T03:20:45.962Z,10.50
2018-11-05T03:23:14.445Z,10.50
2018-11-05T03:25:42.797Z,10.50
2018-11-05T03:28:11.126Z,10.50
2018-11-05T03:30:39.439Z,10.50
2018-11-05T03:33:07.754Z,10.50
2018-11-05T03:35:36.136Z,10.50
2018-11-05T03:38:04.441Z,10.50
2018-11-05T03:40:32.766Z,10.50
2018-11-05T03:43:01.117Z,10.50
2018-11-05T03:45:29.437Z,10.40
2018-11-05T03:47:57.778Z,10.40
2018-11-05T03:50:26.161Z,10.40
2018-11-05T03:52:54.516Z,10.40
2018-11-05T03:55:22.868Z,10.50
2018-11-05T03:57:51.171Z,10.40
2018-11-05T04:00:19.526Z,10.50
2018-11-05T04:02:47.838Z,10.40
2018-11-05T04:05:16.182Z,10.40
2018-11-05T04:07:44.542Z,10.40
2018-11-05T04:10:13.571Z,10.50
2018-11-05T04:12:41.944Z,10.50
2018-11-05T04:15:10.932Z,10.40
2018-11-05T04:17:39.245Z,10.40
2018-11-05T04:20:09.384Z,10.40
2018-11-05T04:22:37.708Z,10.40
2018-11-05T04:25:06.069Z,10.40
2018-11-05T04:27:34.433Z,10.40
2018-11-05T04:30:02.738Z,10.40
2018-11-05T04:32:31.120Z,10.40
2018-11-05T04:34:59.488Z,10.40
2018-11-05T04:37:27.808Z,10.40
2018-11-05T04:39:56.156Z,10.40
2018-11-05T04:42:24.498Z,10.40
2018-11-05T04:44:52.848Z,10.40
2018-11-05T04:47:21.172Z,10.40
2018-11-05T04:49:49.502Z,10.40
2018-11-05T04:52:17.841Z,10.40
2018-11-05T04:54:46.162Z,10.40
2018-11-05T04:57:14.511Z,10.50
2018-11-05T04:59:42.834Z,10.40
2018-11-05T05:02:11.200Z,10.40
2018-11-05T05:04:39.790Z,10.40
2018-11-05T05:07:08.214Z,10.40
2018-11-05T05:09:36.585Z,10.40
2018-11-05T05:12:05.196Z,10.40
2018-11-05T05:14:33.510Z,10.40
2018-11-05T05:17:01.836Z,10.40
2018-11-05T05:19:30.189Z,10.40
2018-11-05T05:21:58.581Z,10.40
2018-11-05T05:24:26.922Z,10.40
2018-11-05T05:26:55.253Z,10.40
2018-11-05T05:29:23.600Z,10.40
2018-11-05T05:31:51.929Z,10.40
2018-11-05T05:34:20.335Z,10.40
2018-11-05T05:36:48.669Z,10.40
2018-11-05T05:39:16.997Z,10.40
2018-11-05T05:41:45.331Z,10.40
2018-11-05T05:44:13.675Z,10.40
2018-11-05T05:46:42.003Z,10.40
2018-11-05T05:49:10.336Z,10.40
2018-11-05T05:51:38.658Z,10.40
2018-11-05T05:54:07.004Z,10.40
2018-11-05T05:56:35.346Z,10.40
2018-11-05T05:59:03.730Z,10.30
2018-11-05T06:01:32.036Z,10.40
2018-11-05T06:04:00.363Z,10.40
2018-11-05T06:06:28.790Z,10.40
2018-11-05T06:08:57.149Z,10.40
2018-11-05T06:11:25.518Z,10.40
2018-11-05T06:13:54.101Z,10.40
2018-11-05T06:16:22.425Z,10.30
2018-11-05T06:18:50.781Z,10.30
2018-11-05T06:21:19.171Z,10.40
2018-11-05T06:23:47.509Z,10.40
2018-11-05T06:26:15.833Z,10.40
2018-11-05T06:28:44.245Z,10.30
2018-11-05T06:31:12.541Z,10.40
2018-11-05T06:33:40.909Z,10.40
2018-11-05T06:36:09.338Z,10.30
2018-11-05T06:38:37.691Z,10.40
2018-11-05T06:41:06.571Z,10.40
2018-11-05T06:43:34.895Z,10.40
2018-11-05T06:46:03.242Z,10.40
2018-11-05T06:48:31.635Z,10.40
2018-11-05T06:51:00.011Z,10.40
2018-11-05T06:53:32.707Z,10.50
2018-11-05T06:56:01.168Z,10.40
2018-11-05T06:58:29.523Z,10.40
2018-11-05T07:00:57.885Z,10.40
2018-11-05T07:03:26.259Z,10.40
2018-11-05T07:05:54.673Z,10.40
2018-11-05T07:08:22.977Z,10.40
2018-11-05T07:10:51.324Z,10.40
2018-11-05T07:13:19.699Z,10.40
2018-11-05T07:15:48.055Z,10.50
2018-11-05T07:18:16.471Z,10.40
2018-11-05T07:20:44.897Z,10.40
2018-11-05T07:23:13.275Z,10.50
2018-11-05T07:25:41.672Z,10.50
2018-11-05T07:28:10.033Z,10.50
2018-11-05T07:30:38.338Z,10.50
2018-11-05T07:33:06.751Z,10.50
2018-11-05T07:35:35.085Z,10.50
2018-11-05T07:38:03.450Z,10.60
2018-11-05T07:40:31.783Z,10.60
2018-11-05T07:43:00.130Z,10.70
2018-11-05T07:45:28.445Z,10.60
2018-11-05T07:47:56.769Z,10.70
2018-11-05T07:50:25.195Z,10.70
2018-11-05T07:52:53.519Z,10.70
2018-11-05T07:55:21.844Z,10.80
2018-11-05T07:57:50.842Z,10.80
2018-11-05T08:00:24.597Z,10.80
2018-11-05T08:02:55.244Z,10.80
2018-11-05T08:05:24.070Z,10.80
2018-11-05T08:07:52.519Z,10.80
2018-11-05T08:10:20.887Z,10.80
2018-11-05T08:12:49.206Z,10.80
2018-11-05T08:15:18.991Z,10.80
2018-11-05T08:17:48.346Z,10.80
2018-11-05T08:20:16.686Z,10.80
2018-11-05T08:22:45.084Z,10.80
2018-11-05T08:25:14.143Z,10.80
2018-11-05T08:27:42.543Z,10.80
2018-11-05T08:30:16.226Z,10.90
2018-11-05T08:32:44.591Z,10.80
2018-11-05T08:35:13.579Z,10.90
2018-11-05T08:37:42.886Z,10.90
2018-11-05T08:40:13.590Z,10.90
2018-11-05T08:42:42.399Z,10.90
2018-11-05T08:45:11.721Z,11.00
2018-11-05T08:47:40.078Z,11.00
2018-11-05T08:50:10.196Z,11.00
2018-11-05T08:52:38.606Z,11.10
2018-11-05T08:55:18.554Z,11.10
2018-11-05T08:57:47.011Z,11.10
2018-11-05T09:00:22.612Z,11.20
2018-11-05T09:02:51.232Z,11.20
2018-11-05T09:05:19.901Z,11.30
2018-11-05T09:07:48.938Z,11.30
2018-11-05T09:10:17.632Z,11.30
2018-11-05T09:12:45.781Z,11.30
2018-11-05T09:15:15.551Z,11.30
2018-11-05T09:17:44.739Z,11.30
2018-11-05T09:20:14.224Z,11.30
2018-11-05T09:22:42.597Z,11.30
2018-11-05T09:25:11.615Z,11.30
2018-11-05T09:27:40.017Z,11.30
2018-11-05T09:30:10.301Z,11.30
2018-11-05T09:32:38.617Z,11.30
2018-11-05T09:35:07.356Z,11.30
2018-11-05T09:37:36.288Z,11.40
2018-11-05T09:40:05.895Z,11.40
2018-11-05T09:42:34.278Z,11.50
2018-11-05T09:45:02.575Z,11.50
2018-11-05T09:47:30.957Z,11.50
2018-11-05T09:49:59.284Z,11.60
2018-11-05T09:52:27.623Z,11.70
2018-11-05T09:54:55.971Z,11.70
2018-11-05T09:57:24.486Z,11.80
2018-11-05T09:59:52.775Z,11.80
2018-11-05T10:02:21.208Z,11.80
2018-11-05T10:04:49.957Z,11.90
2018-11-05T10:07:18.049Z,11.90
2018-11-05T10:09:46.456Z,11.90
2018-11-05T10:12:14.750Z,12.00
2018-11-05T10:14:43.105Z,12.00
2018-11-05T10:17:11.461Z,12.10
2018-11-05T10:19:39.819Z,12.10
2018-11-05T10:22:08.216Z,12.30
2018-11-05T10:24:36.637Z,12.40
2018-11-05T10:27:05.096Z,12.50
2018-11-05T10:29:33.433Z,12.60
2018-11-05T10:32:01.784Z,12.60
2018-11-05T10:34:30.134Z,12.70
2018-11-05T10:36:58.469Z,12.80
2018-11-05T10:39:26.829Z,12.80
2018-11-05T10:41:55.224Z,12.90
2018-11-05T10:44:23.556Z,13.10
2018-11-05T10:46:51.925Z,13.20
2018-11-05T10:49:20.397Z,13.30
2018-11-05T10:51:48.808Z,13.40
2018-11-05T10:54:17.538Z,13.50
2018-11-05T10:56:45.944Z,13.50
2018-11-05T10:59:14.329Z,13.50
2018-11-05T11:01:48.149Z,13.50
2018-11-05T11:04:21.941Z,13.70
2018-11-05T11:06:50.307Z,13.90
2018-11-05T11:09:18.645Z,13.90
2018-11-05T11:11:47.008Z,13.90
2018-11-05T11:14:15.358Z,13.90
2018-11-05T11:16:43.729Z,13.80
2018-11-05T11:19:12.530Z,13.60
2018-11-05T11:21:41.136Z,13.80
2018-11-05T11:24:09.481Z,14.10
2018-11-05T11:26:38.036Z,14.30
2018-11-05T11:29:06.535Z,14.50
2018-11-05T11:31:34.826Z,14.50
2018-11-05T11:34:03.165Z,14.40
2018-11-05T11:36:31.541Z,14.10
2018-11-05T11:38:59.856Z,14.10
2018-11-05T11:41:28.240Z,14.10
2018-11-05T11:43:56.613Z,14.20
2018-11-05T11:46:24.945Z,14.40
2018-11-05T11:48:53.372Z,14.60
2018-11-05T11:51:21.688Z,14.90
2018-11-05T11:53:50.044Z,15.10
2018-11-05T11:56:18.416Z,15.30
2018-11-05T11:58:46.714Z,15.30
2018-11-05T12:01:15.072Z,15.40
2018-11-05T12:03:43.404Z,15.40
2018-11-05T12:06:11.938Z,15.60
2018-11-05T12:08:40.257Z,15.60
2018-11-05T12:11:08.611Z,15.50
2018-11-05T12:13:36.978Z,15.50
2018-11-05T12:16:05.650Z,15.50
2018-11-05T12:18:34.135Z,15.80
2018-11-05T12:21:02.513Z,16.10
2018-11-05T12:23:30.870Z,16.20
2018-11-05T12:25:59.214Z,16.40
2018-11-05T12:28:27.611Z,16.60
2018-11-05T12:30:55.957Z,16.50
2018-11-05T12:33:24.325Z,16.50
2018-11-05T12:35:52.656Z,16.70
2018-11-05T12:38:21.121Z,16.80
2018-11-05T12:40:49.520Z,16.90
2018-11-05T12:43:17.830Z,17.00
2018-11-05T12:45:46.190Z,17.10
2018-11-05T12:48:14.508Z,17.00
2018-11-05T12:50:42.920Z,17.20
2018-11-05T12:53:11.221Z,17.40
2018-11-05T12:55:39.617Z,17.60
2018-11-05T12:58:07.953Z,17.80
2018-11-05T13:00:36.309Z,17.90
2018-11-05T13:03:04.841Z,18.00
2018-11-05T13:05:33.199Z,18.10
2018-11-05T13:08:01.602Z,18.10
2018-11-05T13:10:29.919Z,18.10
2018-11-05T13:12:58.295Z,18.20
2018-11-05T13:15:27.082Z,18.10
2018-11-05T13:17:55.299Z,18.30
2018-11-05T13:20:24.299Z,18.40
2018-11-05T13:22:52.707Z,18.40
2018-11-05T13:25:21.074Z,18.50
2018-11-05T13:27:50.437Z,18.40
2018-11-05T13:30:18.995Z,18.10
2018-11-05T13:32:47.425Z,18.20
2018-11-05T13:35:17.193Z,17.30
2018-11-05T13:37:46.035Z,17.30
2018-11-05T13:40:16.236Z,17.30
2018-11-05T13:42:45.084Z,17.50
2018-11-05T13:45:14.129Z,17.20
2018-11-05T13:47:43.183Z,17.50
2018-11-05T13:50:11.959Z,17.70
2018-11-05T13:52:40.330Z,17.30
2018-11-05T13:55:10.561Z,17.20
2018-11-05T13:57:38.940Z,17.30
2018-11-05T14:00:09.231Z,17.40
2018-11-05T14:02:37.596Z,17.50
2018-11-05T14:05:05.979Z,17.70
2018-11-05T14:07:34.548Z,18.10
2018-11-05T14:10:04.353Z,18.50
2018-11-05T14:12:32.805Z,18.80
2018-11-05T14:15:01.047Z,19.00
2018-11-05T14:17:29.593Z,19.30
2018-11-05T14:19:57.897Z,19.40
2018-11-05T14:22:26.253Z,19.40
2018-11-05T14:24:54.574Z,19.40
2018-11-05T14:27:23.011Z,19.50
2018-11-05T14:29:51.594Z,19.60
2018-11-05T14:32:19.715Z,19.40
2018-11-05T14:34:48.093Z,19.40
2018-11-05T14:37:16.429Z,19.60
2018-11-05T14:39:44.793Z,19.60
2018-11-05T14:42:13.194Z,19.70
2018-11-05T14:44:41.507Z,19.80
2018-11-05T14:47:09.860Z,19.90
2018-11-05T14:49:38.225Z,19.90
2018-11-05T14:52:06.613Z,20.00
2018-11-05T14:54:35.144Z,19.80
2018-11-05T14:57:03.504Z,19.80
2018-11-05T14:59:31.855Z,19.80
2018-11-05T15:02:05.537Z,19.70
2018-11-05T15:04:33.899Z,19.50
2018-11-05T15:07:02.221Z,19.20
2018-11-05T15:09:30.585Z,19.20
2018-11-05T15:11:59.014Z,19.20
2018-11-05T15:14:27.349Z,19.00
2018-11-05T15:16:55.687Z,19.00
2018-11-05T15:19:24.344Z,18.90
2018-11-05T15:21:52.595Z,18.70
2018-11-05T15:24:20.964Z,18.60
2018-11-05T15:26:49.410Z,18.40
2018-11-05T15:29:17.715Z,18.20
2018-11-05T15:31:46.039Z,18.10
2018-11-05T15:34:14.379Z,17.90
2018-11-05T15:36:42.715Z,17.70
2018-11-05T15:39:11.053Z,17.50
2018-11-05T15:41:39.441Z,17.20
2018-11-05T15:44:08.229Z,16.90
2018-11-05T15:46:37.132Z,16.60
2018-11-05T15:49:05.545Z,16.40
2018-11-05T15:51:34.091Z,16.10
2018-11-05T15:54:02.461Z,15.90
2018-11-05T15:56:30.819Z,15.70
2018-11-05T15:58:59.117Z,15.40
2018-11-05T16:01:27.525Z,15.20
2018-11-05T16:03:55.891Z,15.10
2018-11-05T16:06:24.222Z,14.90
2018-11-05T16:08:52.608Z,14.70
2018-11-05T16:11:21.007Z,14.60
2018-11-05T16:13:49.348Z,14.40
2018-11-05T16:16:17.734Z,14.30
2018-11-05T16:18:46.120Z,14.00
2018-11-05T16:21:14.490Z,13.80
2018-11-05T16:23:42.850Z,13.70
2018-11-05T16:26:11.222Z,13.60
2018-11-05T16:28:39.530Z,13.50
2018-11-05T16:31:07.891Z,13.40
2018-11-05T16:33:42.952Z,13.30
2018-11-05T16:36:11.339Z,13.20
2018-11-05T16:38:39.750Z,13.20
2018-11-05T16:41:08.093Z,13.20
2018-11-05T16:43:36.469Z,13.10
2018-11-05T16:46:05.881Z,13.00
2018-11-05T16:48:34.241Z,12.90
2018-11-05T16:51:02.613Z,12.80
2018-11-05T16:53:31.027Z,12.70
2018-11-05T16:55:59.422Z,12.60
2018-11-05T16:58:27.811Z,12.50
2018-11-05T17:00:56.300Z,12.50
2018-11-05T17:03:24.625Z,12.40
2018-11-05T17:05:53.024Z,12.20
2018-11-05T17:08:21.408Z,12.20
2018-11-05T17:10:50.437Z,12.10
2018-11-05T17:13:18.899Z,12.10
2018-11-05T17:15:47.212Z,12.00
2018-11-05T17:18:15.582Z,11.80
2018-11-05T17:20:43.956Z,11.70
2018-11-05T17:23:12.431Z,11.70
2018-11-05T17:25:41.575Z,11.60
2018-11-05T17:28:09.974Z,11.60
2018-11-05T17:30:38.520Z,11.50
2018-11-05T17:33:06.916Z,11.50
2018-11-05T17:35:35.279Z,11.40
2018-11-05T17:38:03.615Z,11.40
2018-11-05T17:40:32.382Z,11.30
2018-11-05T17:43:01.460Z,11.20
2018-11-05T17:45:29.840Z,11.10
2018-11-05T17:47:58.202Z,10.90
2018-11-05T17:50:27.106Z,10.90
2018-11-05T17:52:55.642Z,10.90
2018-11-05T17:55:24.056Z,10.90
2018-11-05T17:57:52.413Z,10.90
2018-11-05T18:00:21.981Z,10.90
2018-11-05T18:02:50.374Z,10.90
2018-11-05T18:05:19.057Z,10.90
2018-11-05T18:07:47.548Z,10.90
2018-11-05T18:10:16.119Z,10.90
2018-11-05T18:12:44.530Z,10.80
2018-11-05T18:15:13.326Z,10.80
2018-11-05T18:17:42.496Z,10.70
2018-11-05T18:20:12.453Z,10.70
2018-11-05T18:22:41.046Z,10.60
2018-11-05T18:25:11.631Z,10.60
2018-11-05T18:27:41.172Z,10.50
2018-11-05T18:30:10.453Z,10.40
2018-11-05T18:32:39.006Z,10.30
2018-11-05T18:35:09.033Z,10.30
2018-11-05T18:37:37.460Z,10.20
2018-11-05T18:40:09.461Z,10.20
2018-11-05T18:42:38.099Z,10.20
2018-11-05T18:45:07.494Z,10.10
2018-11-05T18:47:36.306Z,10.10
2018-11-05T18:50:06.775Z,10.00
2018-11-05T18:52:35.362Z,10.00
2018-11-05T18:55:03.822Z,9.90
2018-11-05T18:57:32.268Z,9.80
2018-11-05T19:00:00.672Z,9.80
2018-11-05T19:02:29.084Z,9.70
2018-11-05T19:07:32.479Z,9.70
2018-11-05T19:10:00.869Z,9.60
2018-11-05T19:12:29.240Z,9.60
2018-11-05T19:14:57.677Z,9.50
2018-11-05T19:17:26.040Z,9.50
2018-11-05T19:19:54.430Z,9.50
2018-11-05T19:22:22.912Z,9.50
2018-11-05T19:24:51.226Z,9.30
2018-11-05T19:27:19.630Z,9.10
2018-11-05T19:29:48.056Z,9.00
2018-11-05T19:32:16.424Z,8.90
2018-11-05T19:34:44.844Z,8.90
2018-11-05T19:37:13.213Z,8.90
2018-11-05T19:39:41.620Z,8.90
2018-11-05T19:42:10.112Z,8.90
2018-11-05T19:44:38.502Z,8.90
2018-11-05T19:47:06.961Z,9.00
2018-11-05T19:49:35.436Z,9.00
2018-11-05T19:52:03.884Z,9.00
2018-11-05T19:54:32.270Z,9.00
2018-11-05T19:57:00.617Z,8.90
2018-11-05T19:59:28.954Z,8.90
2018-11-05T20:01:57.391Z,8.80
2018-11-05T20:04:25.759Z,8.80
2018-11-05T20:06:54.090Z,8.70
2018-11-05T20:09:22.520Z,8.70
2018-11-05T20:11:50.935Z,8.60
2018-11-05T20:14:26.111Z,8.60
2018-11-05T20:16:54.575Z,8.60
2018-11-05T20:19:22.943Z,8.60
2018-11-05T20:21:51.245Z,8.50
2018-11-05T20:24:19.663Z,8.50
2018-11-05T20:26:48.037Z,8.50
2018-11-05T20:29:16.380Z,8.50
2018-11-05T20:31:44.973Z,8.50
2018-11-05T20:34:13.456Z,8.40
2018-11-05T20:36:41.592Z,8.40
2018-11-05T20:39:10.912Z,8.30
2018-11-05T20:41:39.260Z,8.20
2018-11-05T20:44:07.697Z,8.20
2018-11-05T20:46:36.151Z,8.20
2018-11-05T20:49:04.500Z,8.10
2018-11-05T20:51:32.862Z,8.10
2018-11-05T20:54:01.295Z,8.10
2018-11-05T20:56:29.597Z,8.00
2018-11-05T20:58:59.903Z,7.90
2018-11-05T21:01:28.302Z,7.90
2018-11-05T21:03:56.672Z,7.70
2018-11-05T21:06:25.037Z,7.70
2018-11-05T21:08:53.435Z,7.80
2018-11-05T21:11:21.767Z,7.80
2018-11-05T21:13:50.136Z,7.80
2018-11-05T21:16:19.353Z,7.80
2018-11-05T21:18:47.725Z,7.80
2018-11-05T21:21:16.147Z,7.80
2018-11-05T21:23:44.448Z,7.80
2018-11-05T21:26:12.813Z,7.70
2018-11-05T21:28:41.173Z,7.70
2018-11-05T21:31:09.526Z,7.60
2018-11-05T21:33:37.891Z,7.60
2018-11-05T21:36:06.300Z,7.60
2018-11-05T21:38:34.644Z,7.70
2018-11-05T21:41:03.000Z,7.70
2018-11-05T21:43:31.336Z,7.70
2018-11-05T21:45:59.699Z,7.70
2018-11-05T21:48:28.059Z,7.70
2018-11-05T21:50:56.411Z,7.70
2018-11-05T21:53:24.779Z,7.70
2018-11-05T21:55:53.158Z,7.60
2018-11-05T21:58:21.525Z,7.60
2018-11-05T22:00:49.893Z,7.50
2018-11-05T22:03:19.049Z,7.50
2018-11-05T22:05:47.439Z,7.40
2018-11-05T22:08:15.767Z,7.30
2018-11-05T22:10:44.133Z,7.30
2018-11-05T22:13:12.484Z,7.30
2018-11-05T22:15:44.778Z,7.30
2018-11-05T22:18:13.539Z,7.30
2018-11-05T22:20:41.867Z,7.30
2018-11-05T22:23:10.263Z,7.20
2018-11-05T22:25:38.631Z,7.20
2018-11-05T22:28:07.264Z,7.20
2018-11-05T22:30:35.623Z,7.20
2018-11-05T22:33:04.078Z,7.10
2018-11-05T22:35:32.499Z,7.10
2018-11-05T22:38:00.926Z,7.10
2018-11-05T22:40:29.362Z,7.00
2018-11-05T22:42:57.821Z,7.00
2018-11-05T22:45:26.176Z,7.00
2018-11-05T22:47:54.526Z,6.90
2018-11-05T22:50:22.892Z,6.90
2018-11-05T22:52:51.212Z,6.90
2018-11-05T22:55:19.544Z,6.90
2018-11-05T22:57:47.924Z,6.90
2018-11-05T23:00:22.498Z,6.80
2018-11-05T23:02:56.279Z,6.80
2018-11-05T23:05:24.906Z,6.70
2018-11-05T23:07:54.256Z,6.60
2018-11-05T23:10:22.686Z,6.40
2018-11-05T23:12:51.264Z,6.40
2018-11-05T23:15:20.256Z,6.40
2018-11-05T23:17:49.061Z,6.40
2018-11-05T23:20:17.356Z,6.40
2018-11-05T23:22:45.769Z,6.40
2018-11-05T23:25:14.497Z,6.40
2018-11-05T23:27:42.873Z,6.40
2018-11-05T23:30:12.563Z,6.40
2018-11-05T23:32:41.264Z,6.40
2018-11-05T23:35:10.492Z,6.40
2018-11-05T23:37:39.856Z,6.40
2018-11-05T23:40:08.836Z,6.30
2018-11-05T23:42:38.100Z,6.30
2018-11-05T23:45:08.343Z,6.20
2018-11-05T23:47:36.719Z,6.20
2018-11-05T23:50:05.605Z,6.20
2018-11-05T23:52:34.079Z,6.10
2018-11-05T23:55:02.622Z,6.10
2018-11-05T23:57:30.966Z,6.10
2018-11-05T23:59:59.343Z,6.10
